sensor_id;sensor_type;location;lat;lon;timestamp;P1;durP1;ratioP1;P2;durP2;ratioP2
66856;SDS011;53766;50.280;19.160;2023-06-10T00:00:03;7.75;;;5.90;;
66856;SDS011;53766;50.280;19.160;2023-06-10T00:02:54;8.52;;;6.20;;
66856;SDS011;53766;50.280;19.160;2023-06-10T00:05:22;9.10;;;6.35;;
66856;SDS011;53766;50.280;19.160;2023-06-10T00:07:50;8.82;;;6.38;;
66856;SDS011;53766;50.280;19.160;2023-06-10T00:10:18;7.90;;;6.22;;
66856;SDS011;53766;50.280;19.160;2023-06-10T00:12:45;10.07;;;6.68;;
66856;SDS011;53766;50.280;19.160;2023-06-10T00:15:13;8.65;;;5.63;;
66856;SDS011;53766;50.280;19.160;2023-06-10T00:17:40;8.02;;;6.30;;
66856;SDS011;53766;50.280;19.160;2023-06-10T00:20:10;10.38;;;6.35;;
66856;SDS011;53766;50.280;19.160;2023-06-10T00:22:40;11.77;;;6.20;;
66856;SDS011;53766;50.280;19.160;2023-06-10T00:25:09;7.68;;;5.97;;
66856;SDS011;53766;50.280;19.160;2023-06-10T00:27:38;9.20;;;6.53;;
66856;SDS011;53766;50.280;19.160;2023-06-10T00:30:06;8.82;;;6.00;;
66856;SDS011;53766;50.280;19.160;2023-06-10T00:32:34;8.57;;;6.15;;
66856;SDS011;53766;50.280;19.160;2023-06-10T00:35:03;8.23;;;6.28;;
66856;SDS011;53766;50.280;19.160;2023-06-10T00:37:32;9.25;;;6.38;;
66856;SDS011;53766;50.280;19.160;2023-06-10T00:40:02;9.30;;;6.00;;
66856;SDS011;53766;50.280;19.160;2023-06-10T00:42:30;8.02;;;6.45;;
66856;SDS011;53766;50.280;19.160;2023-06-10T00:44:58;10.27;;;6.55;;
66856;SDS011;53766;50.280;19.160;2023-06-10T00:47:26;10.88;;;6.38;;
66856;SDS011;53766;50.280;19.160;2023-06-10T00:49:54;8.52;;;6.15;;
66856;SDS011;53766;50.280;19.160;2023-06-10T00:52:22;10.05;;;6.35;;
66856;SDS011;53766;50.280;19.160;2023-06-10T00:54:54;8.38;;;6.25;;
66856;SDS011;53766;50.280;19.160;2023-06-10T00:57:22;6.82;;;5.97;;
66856;SDS011;53766;50.280;19.160;2023-06-10T00:59:50;7.65;;;6.05;;
66856;SDS011;53766;50.280;19.160;2023-06-10T01:02:18;11.15;;;6.85;;
66856;SDS011;53766;50.280;19.160;2023-06-10T01:04:46;8.45;;;6.53;;
66856;SDS011;53766;50.280;19.160;2023-06-10T01:07:22;8.10;;;5.80;;
66856;SDS011;53766;50.280;19.160;2023-06-10T01:15:06;12.43;;;5.97;;
66856;SDS011;53766;50.280;19.160;2023-06-10T01:17:53;9.20;;;6.50;;
66856;SDS011;53766;50.280;19.160;2023-06-10T01:20:21;9.77;;;6.53;;
66856;SDS011;53766;50.280;19.160;2023-06-10T01:22:49;8.27;;;6.55;;
66856;SDS011;53766;50.280;19.160;2023-06-10T01:25:18;7.78;;;6.05;;
66856;SDS011;53766;50.280;19.160;2023-06-10T01:27:46;7.68;;;6.57;;
66856;SDS011;53766;50.280;19.160;2023-06-10T01:30:17;7.30;;;6.05;;
66856;SDS011;53766;50.280;19.160;2023-06-10T01:32:50;8.73;;;6.15;;
66856;SDS011;53766;50.280;19.160;2023-06-10T01:35:20;16.73;;;6.05;;
66856;SDS011;53766;50.280;19.160;2023-06-10T01:37:53;8.95;;;6.35;;
66856;SDS011;53766;50.280;19.160;2023-06-10T01:40:23;7.65;;;6.18;;
66856;SDS011;53766;50.280;19.160;2023-06-10T01:42:53;10.85;;;6.10;;
66856;SDS011;53766;50.280;19.160;2023-06-10T01:45:21;8.27;;;6.20;;
66856;SDS011;53766;50.280;19.160;2023-06-10T01:47:48;8.40;;;6.30;;
66856;SDS011;53766;50.280;19.160;2023-06-10T01:50:16;8.57;;;6.50;;
66856;SDS011;53766;50.280;19.160;2023-06-10T01:52:43;9.60;;;6.78;;
66856;SDS011;53766;50.280;19.160;2023-06-10T01:55:12;7.70;;;6.35;;
66856;SDS011;53766;50.280;19.160;2023-06-10T01:57:39;8.07;;;6.10;;
66856;SDS011;53766;50.280;19.160;2023-06-10T02:00:07;12.10;;;6.40;;
66856;SDS011;53766;50.280;19.160;2023-06-10T02:02:35;9.77;;;6.57;;
66856;SDS011;53766;50.280;19.160;2023-06-10T02:05:03;9.10;;;6.55;;
66856;SDS011;53766;50.280;19.160;2023-06-10T02:07:32;9.20;;;6.32;;
66856;SDS011;53766;50.280;19.160;2023-06-10T02:10:00;8.95;;;6.60;;
66856;SDS011;53766;50.280;19.160;2023-06-10T02:12:27;9.48;;;6.75;;
66856;SDS011;53766;50.280;19.160;2023-06-10T02:14:55;12.07;;;6.93;;
66856;SDS011;53766;50.280;19.160;2023-06-10T02:17:22;9.52;;;7.13;;
66856;SDS011;53766;50.280;19.160;2023-06-10T02:19:50;8.75;;;7.32;;
66856;SDS011;53766;50.280;19.160;2023-06-10T02:22:21;8.40;;;7.15;;
66856;SDS011;53766;50.280;19.160;2023-06-10T02:24:49;10.80;;;7.07;;
66856;SDS011;53766;50.280;19.160;2023-06-10T02:27:17;9.40;;;7.07;;
66856;SDS011;53766;50.280;19.160;2023-06-10T02:29:45;9.57;;;6.28;;
66856;SDS011;53766;50.280;19.160;2023-06-10T02:32:12;8.35;;;6.82;;
66856;SDS011;53766;50.280;19.160;2023-06-10T02:34:40;9.05;;;6.65;;
66856;SDS011;53766;50.280;19.160;2023-06-10T02:37:09;9.23;;;6.63;;
66856;SDS011;53766;50.280;19.160;2023-06-10T02:39:37;9.02;;;7.13;;
66856;SDS011;53766;50.280;19.160;2023-06-10T02:42:04;8.75;;;6.80;;
66856;SDS011;53766;50.280;19.160;2023-06-10T02:44:32;10.00;;;6.90;;
66856;SDS011;53766;50.280;19.160;2023-06-10T02:47:00;9.82;;;7.15;;
66856;SDS011;53766;50.280;19.160;2023-06-10T02:49:27;9.18;;;6.97;;
66856;SDS011;53766;50.280;19.160;2023-06-10T02:51:55;12.68;;;7.25;;
66856;SDS011;53766;50.280;19.160;2023-06-10T02:54:24;9.70;;;6.78;;
66856;SDS011;53766;50.280;19.160;2023-06-10T02:56:51;10.27;;;7.75;;
66856;SDS011;53766;50.280;19.160;2023-06-10T02:59:19;10.45;;;7.18;;
66856;SDS011;53766;50.280;19.160;2023-06-10T03:01:47;13.43;;;7.03;;
66856;SDS011;53766;50.280;19.160;2023-06-10T03:04:15;10.35;;;6.68;;
66856;SDS011;53766;50.280;19.160;2023-06-10T03:06:42;10.40;;;7.40;;
66856;SDS011;53766;50.280;19.160;2023-06-10T03:09:12;10.85;;;7.32;;
66856;SDS011;53766;50.280;19.160;2023-06-10T03:11:40;10.60;;;6.97;;
66856;SDS011;53766;50.280;19.160;2023-06-10T03:14:08;9.38;;;7.10;;
66856;SDS011;53766;50.280;19.160;2023-06-10T03:16:35;9.82;;;7.28;;
66856;SDS011;53766;50.280;19.160;2023-06-10T03:19:03;11.00;;;7.10;;
66856;SDS011;53766;50.280;19.160;2023-06-10T03:21:30;10.68;;;7.30;;
66856;SDS011;53766;50.280;19.160;2023-06-10T03:23:58;9.70;;;7.20;;
66856;SDS011;53766;50.280;19.160;2023-06-10T03:26:26;9.95;;;7.25;;
66856;SDS011;53766;50.280;19.160;2023-06-10T03:28:54;12.80;;;7.43;;
66856;SDS011;53766;50.280;19.160;2023-06-10T03:31:22;8.40;;;6.75;;
66856;SDS011;53766;50.280;19.160;2023-06-10T03:33:52;9.77;;;6.80;;
66856;SDS011;53766;50.280;19.160;2023-06-10T03:36:19;11.13;;;7.30;;
66856;SDS011;53766;50.280;19.160;2023-06-10T03:38:47;11.90;;;7.13;;
66856;SDS011;53766;50.280;19.160;2023-06-10T03:41:14;9.10;;;6.50;;
66856;SDS011;53766;50.280;19.160;2023-06-10T03:43:42;10.43;;;6.95;;
66856;SDS011;53766;50.280;19.160;2023-06-10T03:46:11;9.60;;;7.40;;
66856;SDS011;53766;50.280;19.160;2023-06-10T03:48:39;8.82;;;6.80;;
66856;SDS011;53766;50.280;19.160;2023-06-10T03:51:07;10.90;;;6.97;;
66856;SDS011;53766;50.280;19.160;2023-06-10T03:53:35;12.45;;;7.18;;
66856;SDS011;53766;50.280;19.160;2023-06-10T03:56:02;11.07;;;7.40;;
66856;SDS011;53766;50.280;19.160;2023-06-10T03:58:30;10.95;;;7.22;;
66856;SDS011;53766;50.280;19.160;2023-06-10T04:00:57;11.13;;;7.30;;
66856;SDS011;53766;50.280;19.160;2023-06-10T04:03:25;15.02;;;7.60;;
66856;SDS011;53766;50.280;19.160;2023-06-10T04:05:53;12.00;;;7.07;;
66856;SDS011;53766;50.280;19.160;2023-06-10T04:08:20;9.32;;;7.22;;
66856;SDS011;53766;50.280;19.160;2023-06-10T04:10:48;9.73;;;6.85;;
66856;SDS011;53766;50.280;19.160;2023-06-10T04:13:16;12.45;;;7.45;;
66856;SDS011;53766;50.280;19.160;2023-06-10T04:15:44;8.77;;;7.03;;
66856;SDS011;53766;50.280;19.160;2023-06-10T04:18:12;12.13;;;7.55;;
66856;SDS011;53766;50.280;19.160;2023-06-10T04:20:39;8.98;;;7.32;;
66856;SDS011;53766;50.280;19.160;2023-06-10T04:23:07;10.77;;;7.35;;
66856;SDS011;53766;50.280;19.160;2023-06-10T04:25:34;10.38;;;7.47;;
66856;SDS011;53766;50.280;19.160;2023-06-10T04:28:02;11.20;;;7.47;;
66856;SDS011;53766;50.280;19.160;2023-06-10T04:30:30;10.00;;;7.15;;
66856;SDS011;53766;50.280;19.160;2023-06-10T04:32:58;10.27;;;6.75;;
66856;SDS011;53766;50.280;19.160;2023-06-10T04:35:26;11.73;;;7.60;;
66856;SDS011;53766;50.280;19.160;2023-06-10T04:37:56;10.13;;;7.32;;
66856;SDS011;53766;50.280;19.160;2023-06-10T04:40:24;9.68;;;7.13;;
66856;SDS011;53766;50.280;19.160;2023-06-10T04:42:52;12.25;;;6.90;;
66856;SDS011;53766;50.280;19.160;2023-06-10T04:45:19;8.68;;;6.68;;
66856;SDS011;53766;50.280;19.160;2023-06-10T04:47:47;12.73;;;6.93;;
66856;SDS011;53766;50.280;19.160;2023-06-10T04:50:14;10.95;;;7.53;;
66856;SDS011;53766;50.280;19.160;2023-06-10T04:52:42;14.50;;;8.02;;
66856;SDS011;53766;50.280;19.160;2023-06-10T04:55:11;12.27;;;7.40;;
66856;SDS011;53766;50.280;19.160;2023-06-10T04:57:39;11.90;;;7.13;;
66856;SDS011;53766;50.280;19.160;2023-06-10T05:00:06;16.15;;;7.82;;
66856;SDS011;53766;50.280;19.160;2023-06-10T05:02:36;10.63;;;7.32;;
66856;SDS011;53766;50.280;19.160;2023-06-10T05:05:03;11.38;;;7.68;;
66856;SDS011;53766;50.280;19.160;2023-06-10T05:07:31;15.75;;;7.38;;
66856;SDS011;53766;50.280;19.160;2023-06-10T05:09:59;14.70;;;7.38;;
66856;SDS011;53766;50.280;19.160;2023-06-10T05:12:27;13.40;;;7.57;;
66856;SDS011;53766;50.280;19.160;2023-06-10T05:14:54;11.68;;;7.28;;
66856;SDS011;53766;50.280;19.160;2023-06-10T05:17:22;12.35;;;7.45;;
66856;SDS011;53766;50.280;19.160;2023-06-10T05:19:50;11.07;;;7.88;;
66856;SDS011;53766;50.280;19.160;2023-06-10T05:22:17;12.00;;;7.75;;
66856;SDS011;53766;50.280;19.160;2023-06-10T05:24:45;12.93;;;6.47;;
66856;SDS011;53766;50.280;19.160;2023-06-10T05:27:12;10.75;;;6.85;;
66856;SDS011;53766;50.280;19.160;2023-06-10T05:29:40;9.35;;;6.38;;
66856;SDS011;53766;50.280;19.160;2023-06-10T05:32:08;12.13;;;6.70;;
66856;SDS011;53766;50.280;19.160;2023-06-10T05:34:38;11.18;;;6.68;;
66856;SDS011;53766;50.280;19.160;2023-06-10T05:37:06;10.55;;;6.65;;
66856;SDS011;53766;50.280;19.160;2023-06-10T05:39:33;10.80;;;6.28;;
66856;SDS011;53766;50.280;19.160;2023-06-10T05:42:05;9.55;;;5.93;;
66856;SDS011;53766;50.280;19.160;2023-06-10T05:44:34;10.65;;;6.68;;
66856;SDS011;53766;50.280;19.160;2023-06-10T05:47:02;8.25;;;5.97;;
66856;SDS011;53766;50.280;19.160;2023-06-10T05:49:29;12.30;;;6.40;;
66856;SDS011;53766;50.280;19.160;2023-06-10T05:51:57;10.75;;;6.63;;
66856;SDS011;53766;50.280;19.160;2023-06-10T05:54:26;10.23;;;6.28;;
66856;SDS011;53766;50.280;19.160;2023-06-10T05:56:56;11.43;;;6.13;;
66856;SDS011;53766;50.280;19.160;2023-06-10T05:59:23;11.35;;;6.25;;
66856;SDS011;53766;50.280;19.160;2023-06-10T06:01:51;8.32;;;5.90;;
66856;SDS011;53766;50.280;19.160;2023-06-10T06:04:18;14.30;;;6.50;;
66856;SDS011;53766;50.280;19.160;2023-06-10T06:06:46;15.45;;;6.45;;
66856;SDS011;53766;50.280;19.160;2023-06-10T06:09:14;12.85;;;6.95;;
66856;SDS011;53766;50.280;19.160;2023-06-10T06:11:41;14.38;;;6.35;;
66856;SDS011;53766;50.280;19.160;2023-06-10T06:14:09;19.30;;;6.20;;
66856;SDS011;53766;50.280;19.160;2023-06-10T06:16:36;13.13;;;6.55;;
66856;SDS011;53766;50.280;19.160;2023-06-10T06:19:04;11.68;;;7.00;;
66856;SDS011;53766;50.280;19.160;2023-06-10T06:21:31;10.63;;;6.32;;
66856;SDS011;53766;50.280;19.160;2023-06-10T06:23:59;14.40;;;6.93;;
66856;SDS011;53766;50.280;19.160;2023-06-10T06:26:27;10.73;;;6.05;;
66856;SDS011;53766;50.280;19.160;2023-06-10T06:28:54;11.55;;;6.60;;
66856;SDS011;53766;50.280;19.160;2023-06-10T06:31:22;11.90;;;6.35;;
66856;SDS011;53766;50.280;19.160;2023-06-10T06:33:49;11.40;;;6.47;;
66856;SDS011;53766;50.280;19.160;2023-06-10T06:36:17;9.85;;;6.07;;
66856;SDS011;53766;50.280;19.160;2023-06-10T06:38:44;8.60;;;5.88;;
66856;SDS011;53766;50.280;19.160;2023-06-10T06:41:12;9.38;;;5.88;;
66856;SDS011;53766;50.280;19.160;2023-06-10T06:43:39;8.52;;;6.05;;
66856;SDS011;53766;50.280;19.160;2023-06-10T06:46:07;14.95;;;6.32;;
66856;SDS011;53766;50.280;19.160;2023-06-10T06:48:35;11.23;;;5.63;;
66856;SDS011;53766;50.280;19.160;2023-06-10T06:51:03;10.57;;;5.75;;
66856;SDS011;53766;50.280;19.160;2023-06-10T06:53:30;7.80;;;5.53;;
66856;SDS011;53766;50.280;19.160;2023-06-10T06:55:58;10.60;;;6.53;;
66856;SDS011;53766;50.280;19.160;2023-06-10T06:58:26;10.50;;;6.13;;
66856;SDS011;53766;50.280;19.160;2023-06-10T07:00:53;7.97;;;5.88;;
66856;SDS011;53766;50.280;19.160;2023-06-10T07:03:21;9.50;;;5.80;;
66856;SDS011;53766;50.280;19.160;2023-06-10T07:05:48;8.60;;;5.57;;
66856;SDS011;53766;50.280;19.160;2023-06-10T07:08:15;9.80;;;6.20;;
66856;SDS011;53766;50.280;19.160;2023-06-10T07:10:43;8.88;;;6.15;;
66856;SDS011;53766;50.280;19.160;2023-06-10T07:13:10;8.48;;;5.75;;
66856;SDS011;53766;50.280;19.160;2023-06-10T07:15:41;11.95;;;5.90;;
66856;SDS011;53766;50.280;19.160;2023-06-10T07:18:08;9.00;;;5.68;;
66856;SDS011;53766;50.280;19.160;2023-06-10T07:20:36;10.60;;;5.80;;
66856;SDS011;53766;50.280;19.160;2023-06-10T07:23:03;10.63;;;5.90;;
66856;SDS011;53766;50.280;19.160;2023-06-10T07:25:31;8.60;;;5.80;;
66856;SDS011;53766;50.280;19.160;2023-06-10T07:27:58;10.05;;;5.65;;
66856;SDS011;53766;50.280;19.160;2023-06-10T07:30:27;9.18;;;5.75;;
66856;SDS011;53766;50.280;19.160;2023-06-10T07:32:55;8.50;;;5.88;;
66856;SDS011;53766;50.280;19.160;2023-06-10T07:35:23;8.63;;;5.10;;
66856;SDS011;53766;50.280;19.160;2023-06-10T07:37:50;10.70;;;5.53;;
66856;SDS011;53766;50.280;19.160;2023-06-10T07:40:18;9.63;;;5.32;;
66856;SDS011;53766;50.280;19.160;2023-06-10T07:42:45;8.57;;;5.50;;
66856;SDS011;53766;50.280;19.160;2023-06-10T07:45:13;8.68;;;5.15;;
66856;SDS011;53766;50.280;19.160;2023-06-10T07:47:40;9.10;;;5.20;;
66856;SDS011;53766;50.280;19.160;2023-06-10T07:50:09;7.93;;;5.03;;
66856;SDS011;53766;50.280;19.160;2023-06-10T07:52:36;7.20;;;5.05;;
66856;SDS011;53766;50.280;19.160;2023-06-10T07:55:04;7.05;;;4.97;;
66856;SDS011;53766;50.280;19.160;2023-06-10T07:57:32;6.60;;;5.45;;
66856;SDS011;53766;50.280;19.160;2023-06-10T08:00:03;9.18;;;5.70;;
66856;SDS011;53766;50.280;19.160;2023-06-10T08:02:32;7.05;;;4.80;;
66856;SDS011;53766;50.280;19.160;2023-06-10T08:05:00;8.35;;;5.10;;
66856;SDS011;53766;50.280;19.160;2023-06-10T08:07:27;9.77;;;5.50;;
66856;SDS011;53766;50.280;19.160;2023-06-10T08:09:55;7.55;;;4.90;;
66856;SDS011;53766;50.280;19.160;2023-06-10T08:12:23;11.65;;;5.30;;
66856;SDS011;53766;50.280;19.160;2023-06-10T08:14:50;14.88;;;5.07;;
66856;SDS011;53766;50.280;19.160;2023-06-10T08:17:18;12.57;;;5.32;;
66856;SDS011;53766;50.280;19.160;2023-06-10T08:19:45;15.05;;;5.43;;
66856;SDS011;53766;50.280;19.160;2023-06-10T08:22:13;13.32;;;5.60;;
66856;SDS011;53766;50.280;19.160;2023-06-10T08:24:41;10.88;;;5.68;;
66856;SDS011;53766;50.280;19.160;2023-06-10T08:27:09;7.32;;;5.18;;
66856;SDS011;53766;50.280;19.160;2023-06-10T08:29:37;9.40;;;5.43;;
66856;SDS011;53766;50.280;19.160;2023-06-10T08:32:05;5.93;;;4.75;;
66856;SDS011;53766;50.280;19.160;2023-06-10T08:34:35;7.55;;;5.07;;
66856;SDS011;53766;50.280;19.160;2023-06-10T08:37:03;7.18;;;5.45;;
66856;SDS011;53766;50.280;19.160;2023-06-10T08:39:31;8.20;;;4.95;;
66856;SDS011;53766;50.280;19.160;2023-06-10T08:44:35;7.43;;;4.45;;
66856;SDS011;53766;50.280;19.160;2023-06-10T08:47:16;6.70;;;4.70;;
66856;SDS011;53766;50.280;19.160;2023-06-10T08:49:45;8.52;;;4.60;;
66856;SDS011;53766;50.280;19.160;2023-06-10T08:52:17;8.20;;;4.80;;
66856;SDS011;53766;50.280;19.160;2023-06-10T08:54:56;7.22;;;4.85;;
66856;SDS011;53766;50.280;19.160;2023-06-10T08:57:26;7.68;;;5.15;;
66856;SDS011;53766;50.280;19.160;2023-06-10T08:59:56;6.97;;;5.20;;
66856;SDS011;53766;50.280;19.160;2023-06-10T09:02:24;7.72;;;4.97;;
66856;SDS011;53766;50.280;19.160;2023-06-10T09:04:52;8.13;;;5.22;;
66856;SDS011;53766;50.280;19.160;2023-06-10T09:07:20;6.35;;;4.90;;
66856;SDS011;53766;50.280;19.160;2023-06-10T09:09:48;7.10;;;4.70;;
66856;SDS011;53766;50.280;19.160;2023-06-10T09:12:17;5.90;;;4.32;;
66856;SDS011;53766;50.280;19.160;2023-06-10T09:14:45;6.50;;;5.05;;
66856;SDS011;53766;50.280;19.160;2023-06-10T09:17:13;7.00;;;4.85;;
66856;SDS011;53766;50.280;19.160;2023-06-10T09:19:40;9.63;;;5.20;;
66856;SDS011;53766;50.280;19.160;2023-06-10T09:22:10;8.77;;;5.28;;
66856;SDS011;53766;50.280;19.160;2023-06-10T09:24:37;6.90;;;4.70;;
66856;SDS011;53766;50.280;19.160;2023-06-10T09:27:07;6.72;;;4.90;;
66856;SDS011;53766;50.280;19.160;2023-06-10T09:29:47;6.65;;;5.03;;
66856;SDS011;53766;50.280;19.160;2023-06-10T09:32:19;5.90;;;4.85;;
66856;SDS011;53766;50.280;19.160;2023-06-10T09:34:47;7.10;;;5.00;;
66856;SDS011;53766;50.280;19.160;2023-06-10T09:37:24;6.40;;;5.25;;
66856;SDS011;53766;50.280;19.160;2023-06-10T09:40:05;6.70;;;5.10;;
66856;SDS011;53766;50.280;19.160;2023-06-10T09:42:35;6.45;;;5.30;;
66856;SDS011;53766;50.280;19.160;2023-06-10T09:45:04;8.68;;;5.32;;
66856;SDS011;53766;50.280;19.160;2023-06-10T09:47:33;8.00;;;5.20;;
66856;SDS011;53766;50.280;19.160;2023-06-10T09:50:01;9.00;;;6.10;;
66856;SDS011;53766;50.280;19.160;2023-06-10T09:52:29;9.00;;;5.32;;
66856;SDS011;53766;50.280;19.160;2023-06-10T09:55:00;7.00;;;5.25;;
66856;SDS011;53766;50.280;19.160;2023-06-10T09:57:32;8.13;;;5.90;;
66856;SDS011;53766;50.280;19.160;2023-06-10T10:00:08;7.72;;;5.72;;
66856;SDS011;53766;50.280;19.160;2023-06-10T10:02:47;7.68;;;5.28;;
66856;SDS011;53766;50.280;19.160;2023-06-10T10:05:17;6.70;;;5.45;;
66856;SDS011;53766;50.280;19.160;2023-06-10T10:07:47;7.88;;;5.65;;
66856;SDS011;53766;50.280;19.160;2023-06-10T10:10:17;7.07;;;5.10;;
66856;SDS011;53766;50.280;19.160;2023-06-10T10:12:46;10.85;;;5.75;;
66856;SDS011;53766;50.280;19.160;2023-06-10T10:15:16;8.43;;;5.75;;
66856;SDS011;53766;50.280;19.160;2023-06-10T10:20:29;9.05;;;5.80;;
66856;SDS011;53766;50.280;19.160;2023-06-10T10:22:58;9.40;;;5.63;;
66856;SDS011;53766;50.280;19.160;2023-06-10T10:25:28;8.63;;;5.47;;
66856;SDS011;53766;50.280;19.160;2023-06-10T10:28:02;7.57;;;5.55;;
66856;SDS011;53766;50.280;19.160;2023-06-10T10:30:37;7.03;;;4.95;;
66856;SDS011;53766;50.280;19.160;2023-06-10T10:33:18;8.57;;;5.93;;
66856;SDS011;53766;50.280;19.160;2023-06-10T10:35:50;8.90;;;5.38;;
66856;SDS011;53766;50.280;19.160;2023-06-10T10:38:21;10.00;;;5.40;;
66856;SDS011;53766;50.280;19.160;2023-06-10T10:40:48;7.80;;;5.07;;
66856;SDS011;53766;50.280;19.160;2023-06-10T10:43:17;8.18;;;5.20;;
66856;SDS011;53766;50.280;19.160;2023-06-10T10:45:46;7.43;;;5.15;;
66856;SDS011;53766;50.280;19.160;2023-06-10T10:48:24;6.63;;;4.78;;
66856;SDS011;53766;50.280;19.160;2023-06-10T10:50:56;6.68;;;5.05;;
66856;SDS011;53766;50.280;19.160;2023-06-10T10:53:25;8.55;;;5.15;;
66856;SDS011;53766;50.280;19.160;2023-06-10T10:56:05;7.43;;;4.90;;
66856;SDS011;53766;50.280;19.160;2023-06-10T10:58:34;7.30;;;4.72;;
66856;SDS011;53766;50.280;19.160;2023-06-10T11:01:09;7.57;;;4.90;;
66856;SDS011;53766;50.280;19.160;2023-06-10T11:03:42;8.77;;;5.32;;
66856;SDS011;53766;50.280;19.160;2023-06-10T11:06:16;9.27;;;5.03;;
66856;SDS011;53766;50.280;19.160;2023-06-10T11:08:46;7.70;;;5.20;;
66856;SDS011;53766;50.280;19.160;2023-06-10T11:11:20;7.13;;;4.93;;
66856;SDS011;53766;50.280;19.160;2023-06-10T11:16:31;6.70;;;4.43;;
66856;SDS011;53766;50.280;19.160;2023-06-10T11:19:09;8.77;;;4.40;;
66856;SDS011;53766;50.280;19.160;2023-06-10T11:21:58;5.65;;;4.38;;
66856;SDS011;53766;50.280;19.160;2023-06-10T11:24:28;7.72;;;4.70;;
66856;SDS011;53766;50.280;19.160;2023-06-10T11:27:14;6.70;;;4.38;;
66856;SDS011;53766;50.280;19.160;2023-06-10T11:32:33;5.22;;;3.97;;
66856;SDS011;53766;50.280;19.160;2023-06-10T11:35:02;8.70;;;4.97;;
66856;SDS011;53766;50.280;19.160;2023-06-10T11:37:30;6.13;;;4.72;;
66856;SDS011;53766;50.280;19.160;2023-06-10T11:39:58;6.95;;;4.18;;
66856;SDS011;53766;50.280;19.160;2023-06-10T11:42:26;7.38;;;4.55;;
66856;SDS011;53766;50.280;19.160;2023-06-10T11:44:54;6.60;;;4.70;;
66856;SDS011;53766;50.280;19.160;2023-06-10T11:47:22;6.35;;;4.53;;
66856;SDS011;53766;50.280;19.160;2023-06-10T11:49:56;6.63;;;4.60;;
66856;SDS011;53766;50.280;19.160;2023-06-10T11:52:27;6.97;;;4.50;;
66856;SDS011;53766;50.280;19.160;2023-06-10T11:55:06;6.88;;;4.40;;
66856;SDS011;53766;50.280;19.160;2023-06-10T11:57:37;6.32;;;4.40;;
66856;SDS011;53766;50.280;19.160;2023-06-10T12:00:05;6.40;;;4.60;;
66856;SDS011;53766;50.280;19.160;2023-06-10T12:02:34;7.25;;;4.97;;
66856;SDS011;53766;50.280;19.160;2023-06-10T12:05:20;7.70;;;4.05;;
66856;SDS011;53766;50.280;19.160;2023-06-10T12:07:48;6.07;;;4.50;;
66856;SDS011;53766;50.280;19.160;2023-06-10T12:10:15;5.78;;;4.22;;
66856;SDS011;53766;50.280;19.160;2023-06-10T12:12:54;6.90;;;4.88;;
66856;SDS011;53766;50.280;19.160;2023-06-10T12:15:25;6.60;;;4.72;;
66856;SDS011;53766;50.280;19.160;2023-06-10T12:17:52;6.88;;;4.85;;
66856;SDS011;53766;50.280;19.160;2023-06-10T12:23:00;6.55;;;4.82;;
66856;SDS011;53766;50.280;19.160;2023-06-10T12:25:37;8.32;;;5.38;;
66856;SDS011;53766;50.280;19.160;2023-06-10T12:28:09;12.43;;;5.72;;
66856;SDS011;53766;50.280;19.160;2023-06-10T12:30:37;12.07;;;5.43;;
66856;SDS011;53766;50.280;19.160;2023-06-10T12:33:05;7.07;;;5.43;;
66856;SDS011;53766;50.280;19.160;2023-06-10T12:35:47;9.00;;;6.13;;
66856;SDS011;53766;50.280;19.160;2023-06-10T12:38:21;8.50;;;5.90;;
66856;SDS011;53766;50.280;19.160;2023-06-10T12:40:54;8.07;;;5.47;;
66856;SDS011;53766;50.280;19.160;2023-06-10T12:43:27;7.60;;;5.47;;
66856;SDS011;53766;50.280;19.160;2023-06-10T12:46:08;9.40;;;5.72;;
66856;SDS011;53766;50.280;19.160;2023-06-10T12:48:36;10.15;;;5.53;;
66856;SDS011;53766;50.280;19.160;2023-06-10T12:51:16;7.57;;;5.65;;
66856;SDS011;53766;50.280;19.160;2023-06-10T12:53:43;7.10;;;4.97;;
66856;SDS011;53766;50.280;19.160;2023-06-10T12:56:11;9.95;;;5.35;;
66856;SDS011;53766;50.280;19.160;2023-06-10T12:58:39;6.00;;;4.75;;
66856;SDS011;53766;50.280;19.160;2023-06-10T13:01:06;8.10;;;4.97;;
66856;SDS011;53766;50.280;19.160;2023-06-10T13:03:34;8.77;;;5.28;;
66856;SDS011;53766;50.280;19.160;2023-06-10T13:06:02;9.52;;;5.38;;
66856;SDS011;53766;50.280;19.160;2023-06-10T13:08:29;10.55;;;5.05;;
66856;SDS011;53766;50.280;19.160;2023-06-10T13:10:57;6.20;;;5.15;;
66856;SDS011;53766;50.280;19.160;2023-06-10T13:13:24;8.98;;;5.00;;
66856;SDS011;53766;50.280;19.160;2023-06-10T13:15:52;7.43;;;5.00;;
66856;SDS011;53766;50.280;19.160;2023-06-10T13:18:20;7.97;;;5.00;;
66856;SDS011;53766;50.280;19.160;2023-06-10T13:20:48;7.65;;;5.10;;
66856;SDS011;53766;50.280;19.160;2023-06-10T13:23:15;7.65;;;5.13;;
66856;SDS011;53766;50.280;19.160;2023-06-10T13:25:44;7.55;;;5.13;;
66856;SDS011;53766;50.280;19.160;2023-06-10T13:28:11;6.70;;;4.82;;
66856;SDS011;53766;50.280;19.160;2023-06-10T13:30:39;8.73;;;5.07;;
66856;SDS011;53766;50.280;19.160;2023-06-10T13:33:06;8.63;;;5.05;;
66856;SDS011;53766;50.280;19.160;2023-06-10T13:35:34;6.63;;;4.70;;
66856;SDS011;53766;50.280;19.160;2023-06-10T13:38:01;11.50;;;4.80;;
66856;SDS011;53766;50.280;19.160;2023-06-10T13:40:29;7.93;;;4.82;;
66856;SDS011;53766;50.280;19.160;2023-06-10T13:42:57;5.40;;;4.50;;
66856;SDS011;53766;50.280;19.160;2023-06-10T13:45:24;8.00;;;4.60;;
66856;SDS011;53766;50.280;19.160;2023-06-10T13:47:52;5.85;;;4.65;;
66856;SDS011;53766;50.280;19.160;2023-06-10T13:50:20;5.93;;;4.40;;
66856;SDS011;53766;50.280;19.160;2023-06-10T13:52:47;7.70;;;4.85;;
66856;SDS011;53766;50.280;19.160;2023-06-10T13:55:15;6.22;;;4.68;;
66856;SDS011;53766;50.280;19.160;2023-06-10T13:57:43;7.25;;;4.45;;
66856;SDS011;53766;50.280;19.160;2023-06-10T14:00:11;7.15;;;4.50;;
66856;SDS011;53766;50.280;19.160;2023-06-10T14:02:38;7.00;;;4.88;;
66856;SDS011;53766;50.280;19.160;2023-06-10T14:05:06;6.68;;;4.43;;
66856;SDS011;53766;50.280;19.160;2023-06-10T14:07:35;5.72;;;4.45;;
66856;SDS011;53766;50.280;19.160;2023-06-10T14:10:04;7.55;;;4.72;;
66856;SDS011;53766;50.280;19.160;2023-06-10T14:12:32;5.65;;;4.40;;
66856;SDS011;53766;50.280;19.160;2023-06-10T14:15:00;7.15;;;4.97;;
66856;SDS011;53766;50.280;19.160;2023-06-10T14:17:28;5.07;;;4.20;;
66856;SDS011;53766;50.280;19.160;2023-06-10T14:19:55;6.38;;;4.93;;
66856;SDS011;53766;50.280;19.160;2023-06-10T14:22:23;9.10;;;4.72;;
66856;SDS011;53766;50.280;19.160;2023-06-10T14:24:51;9.02;;;5.00;;
66856;SDS011;53766;50.280;19.160;2023-06-10T14:27:19;9.80;;;4.88;;
66856;SDS011;53766;50.280;19.160;2023-06-10T14:29:47;7.00;;;4.60;;
66856;SDS011;53766;50.280;19.160;2023-06-10T14:32:14;11.02;;;5.40;;
66856;SDS011;53766;50.280;19.160;2023-06-10T14:34:42;8.43;;;4.70;;
66856;SDS011;53766;50.280;19.160;2023-06-10T14:37:11;12.80;;;5.68;;
66856;SDS011;53766;50.280;19.160;2023-06-10T14:39:39;9.82;;;5.38;;
66856;SDS011;53766;50.280;19.160;2023-06-10T14:42:06;11.40;;;5.70;;
66856;SDS011;53766;50.280;19.160;2023-06-10T14:44:34;13.95;;;5.28;;
66856;SDS011;53766;50.280;19.160;2023-06-10T14:47:01;14.48;;;5.70;;
66856;SDS011;53766;50.280;19.160;2023-06-10T14:49:29;8.27;;;5.28;;
66856;SDS011;53766;50.280;19.160;2023-06-10T14:51:57;12.07;;;5.28;;
66856;SDS011;53766;50.280;19.160;2023-06-10T14:54:24;11.23;;;5.30;;
66856;SDS011;53766;50.280;19.160;2023-06-10T14:56:52;7.82;;;4.90;;
66856;SDS011;53766;50.280;19.160;2023-06-10T14:59:19;12.15;;;5.47;;